Time;durP1;ratioP1;P1;durP2;ratioP2;P2;SDS_P1;SDS_P2;PMS_P1;PMS_P2;Temp;Humidity;BMP_temperature;BMP_pressure;BME280_temperature;BME280_humidity;BME280_pressure;Samples;Min_cycle;Max_cycle;Signal;HPM_P1;HPM_P2
2022/09/06 00:01:24;;;;;;;4.97;2.40;;;21.20;67.40;;;;;;4131238;28;20105;-86
2022/09/06 00:03:28;;;;;;;3.92;2.05;;;21.20;67.40;;;;;;4131025;28;20126;-86
2022/09/06 00:05:30;;;;;;;5.72;2.40;;;21.20;67.40;;;;;;4130518;28;20047;-86
2022/09/06 00:07:31;;;;;;;6.10;2.10;;;21.10;67.40;;;;;;4130939;28;20082;-86
2022/09/06 00:09:32;;;;;;;3.08;2.42;;;21.10;67.50;;;;;;4130949;28;20043;-86
2022/09/06 00:11:33;;;;;;;3.65;2.67;;;21.10;67.60;;;;;;4131094;28;20144;-87
2022/09/06 00:13:34;;;;;;;4.18;2.45;;;21.00;67.80;;;;;;4130759;28;20489;-86
2022/09/06 00:15:36;;;;;;;3.72;2.20;;;21.00;68.00;;;;;;4131335;28;20049;-86
2022/09/06 00:17:40;;;;;;;6.97;2.38;;;21.00;68.70;;;;;;4132395;28;20039;-86
2022/09/06 00:19:40;;;;;;;3.80;2.40;;;20.90;68.00;;;;;;4132261;28;20128;-86
2022/09/06 00:21:41;;;;;;;10.50;2.40;;;20.90;68.00;;;;;;4142985;28;20046;-85
2022/09/06 00:23:42;;;;;;;5.45;3.03;;;20.80;68.10;;;;;;4114978;28;20051;-85
2022/09/06 00:25:43;;;;;;;3.72;2.35;;;20.80;68.20;;;;;;4132235;28;20092;-85
2022/09/06 00:27:45;;;;;;;3.90;2.42;;;20.80;68.40;;;;;;4099491;29;20130;-85
2022/09/06 00:29:45;;;;;;;4.78;2.53;;;20.80;68.50;;;;;;4147872;28;20093;-85
2022/09/06 00:31:46;;;;;;;7.95;2.45;;;20.70;68.60;;;;;;4132935;28;20046;-85
2022/09/06 00:33:47;;;;;;;5.50;2.50;;;20.70;68.70;;;;;;4143523;28;20042;-86
2022/09/06 00:35:48;;;;;;;5.10;2.63;;;20.60;68.70;;;;;;4149340;28;20512;-86
2022/09/06 00:37:49;;;;;;;3.47;2.60;;;20.60;68.90;;;;;;4149285;28;20049;-86
2022/09/06 00:39:50;;;;;;;5.68;2.53;;;20.60;69.00;;;;;;4131044;28;20054;-86
2022/09/06 00:41:52;;;;;;;5.00;3.00;;;20.60;69.10;;;;;;4148059;28;20108;-86
2022/09/06 00:43:54;;;;;;;6.00;2.63;;;20.60;69.20;;;;;;4148418;28;20148;-86
2022/09/06 00:45:55;;;;;;;4.63;2.70;;;20.50;69.30;;;;;;4148533;28;20484;-87
2022/09/06 00:47:59;;;;;;;3.55;2.30;;;20.50;69.30;;;;;;4150156;28;20050;-86
2022/09/06 00:50:01;;;;;;;12.30;2.70;;;20.50;69.40;;;;;;4152306;28;20049;-86
2022/09/06 00:52:06;;;;;;;3.67;2.30;;;20.40;69.40;;;;;;4134655;28;20102;-85
2022/09/06 00:54:08;;;;;;;4.28;2.38;;;20.40;69.40;;;;;;4152301;28;20098;-86
2022/09/06 00:56:09;;;;;;;4.05;2.40;;;20.40;69.50;;;;;;4152560;28;20054;-86
2022/09/06 00:58:13;;;;;;;3.30;2.22;;;20.40;69.60;;;;;;4152429;28;20046;-86
2022/09/06 01:00:14;;;;;;;4.10;2.70;;;20.40;69.70;;;;;;4153015;28;20049;-85
2022/09/06 01:02:15;;;;;;;4.05;2.53;;;20.40;69.80;;;;;;4151072;28;20510;-85
2022/09/06 01:04:16;;;;;;;4.38;2.90;;;20.40;69.80;;;;;;4150739;28;20048;-85
2022/09/06 01:06:23;;;;;;;6.30;2.30;;;20.40;70.00;;;;;;4151472;28;20050;-86
2022/09/06 01:08:45;;;;;;;9.68;2.88;;;20.30;70.30;;;;;;4151552;28;20112;-85
2022/09/06 01:11:09;;;;;;;3.38;2.22;;;20.30;70.40;;;;;;4120659;28;20046;-85
2022/09/06 01:13:16;;;;;;;4.03;2.28;;;20.30;70.00;;;;;;4117521;28;20062;-85
2022/09/06 01:15:43;;;;;;;4.93;2.40;;;20.20;70.10;;;;;;4133474;28;20092;-85
2022/09/06 01:18:06;;;;;;;5.85;2.65;;;20.20;70.70;;;;;;4131786;28;20580;-85
2022/09/06 01:20:22;;;;;;;4.97;3.22;;;20.20;70.30;;;;;;4134673;28;20381;-85
2022/09/06 01:23:03;;;;;;;3.58;2.42;;;20.10;71.00;;;;;;4117582;28;20050;-85
2022/09/06 01:25:31;;;;;;;4.07;2.47;;;20.10;71.10;;;;;;4133871;28;20046;-85
2022/09/06 01:28:02;;;;;;;4.25;2.53;;;20.10;71.10;;;;;;4134720;28;20125;-85
2022/09/06 01:30:07;;;;;;;3.60;2.58;;;20.00;70.60;;;;;;4134748;28;20481;-85
2022/09/06 01:32:11;;;;;;;5.10;2.75;;;20.00;70.90;;;;;;4117996;28;20059;-85
2022/09/06 01:34:27;;;;;;;5.90;2.53;;;20.00;71.00;;;;;;4117340;28;20050;-86
2022/09/06 01:36:48;;;;;;;5.22;2.70;;;20.00;71.60;;;;;;4133671;28;20050;-85
2022/09/06 01:38:49;;;;;;;6.05;2.70;;;20.00;71.30;;;;;;4134564;28;20042;-85
2022/09/06 01:40:49;;;;;;;5.03;2.70;;;20.10;71.10;;;;;;4134237;28;20097;-84
2022/09/06 01:42:52;;;;;;;3.70;2.58;;;20.00;71.20;;;;;;4117334;28;20082;-85
2022/09/06 01:45:15;;;;;;;3.45;2.70;;;20.00;71.30;;;;;;4134567;28;20051;-85
2022/09/06 01:47:39;;;;;;;5.78;2.95;;;20.00;71.90;;;;;;4134298;28;20061;-85
2022/09/06 01:50:07;;;;;;;4.45;2.70;;;20.00;71.90;;;;;;4114747;28;20065;-85
2022/09/06 01:52:16;;;;;;;8.85;2.50;;;20.00;71.90;;;;;;4118741;28;20477;-85
2022/09/06 01:54:37;;;;;;;;;;;19.90;71.70;;;;;;4136368;28;20053;-85
2022/09/06 01:56:52;;;;;;;4.38;2.67;;;19.90;72.20;;;;;;4117323;28;19926;-86
2022/09/06 01:59:09;;;;;;;3.78;2.40;;;19.90;71.90;;;;;;4118243;28;20161;-85
2022/09/06 02:01:31;;;;;;;5.03;2.90;;;19.90;72.00;;;;;;4133739;28;20539;-85
2022/09/06 02:04:02;;;;;;;3.97;2.80;;;19.90;71.90;;;;;;4118196;28;20043;-85
2022/09/06 02:06:07;;;;;;;3.97;2.42;;;19.80;72.50;;;;;;4135112;28;20046;-85
2022/09/06 02:08:20;;;;;;;4.20;2.65;;;19.80;72.10;;;;;;4135649;28;20046;-85
2022/09/06 02:10:22;;;;;;;6.45;2.85;;;19.80;72.40;;;;;;4102153;29;20050;-85
2022/09/06 02:12:25;;;;;;;3.75;2.78;;;19.70;72.30;;;;;;4120496;28;20572;-85
2022/09/06 02:14:32;;;;;;;8.02;2.90;;;19.70;72.50;;;;;;4117825;28;20522;-85
2022/09/06 02:16:36;;;;;;;3.90;2.67;;;19.70;72.80;;;;;;4136650;28;20125;-85
2022/09/06 02:18:45;;;;;;;5.55;3.40;;;19.70;72.70;;;;;;4137227;28;20416;-85
2022/09/06 02:20:49;;;;;;;3.40;2.80;;;19.70;73.00;;;;;;4135837;28;20050;-85
2022/09/06 02:22:52;;;;;;;6.85;2.90;;;19.70;72.90;;;;;;4136259;28;20057;-85
2022/09/06 02:24:55;;;;;;;5.97;2.90;;;19.70;73.00;;;;;;4117541;28;20125;-85
2022/09/06 02:26:56;;;;;;;5.78;2.67;;;19.70;73.00;;;;;;4133380;28;20046;-85
2022/09/06 02:28:57;;;;;;;3.75;2.63;;;19.70;73.10;;;;;;4118179;28;20078;-86
2022/09/06 02:31:02;;;;;;;4.53;3.08;;;19.70;73.20;;;;;;4135221;28;20046;-85
2022/09/06 02:33:12;;;;;;;6.60;2.97;;;19.70;73.30;;;;;;4135255;28;20440;-85
2022/09/06 02:35:15;;;;;;;3.35;2.80;;;19.70;73.50;;;;;;4135042;28;20140;-85
2022/09/06 02:37:16;;;;;;;5.40;2.60;;;19.60;73.40;;;;;;4134216;28;20048;-85
2022/09/06 02:39:18;;;;;;;8.48;2.90;;;19.60;73.70;;;;;;4138507;28;20046;-85
2022/09/06 02:41:21;;;;;;;5.63;2.90;;;19.60;73.80;;;;;;4149343;28;20084;-85
2022/09/06 02:43:22;;;;;;;6.32;3.40;;;19.60;73.90;;;;;;4149461;28;20041;-85
2022/09/06 02:45:23;;;;;;;5.70;3.00;;;19.60;73.90;;;;;;4133544;28;20531;-85
2022/09/06 02:47:23;;;;;;;5.95;3.10;;;19.60;73.90;;;;;;4145609;28;20467;-86
2022/09/06 02:49:24;;;;;;;4.38;3.28;;;19.50;74.00;;;;;;4148649;28;20050;-85
2022/09/06 02:51:25;;;;;;;5.85;2.58;;;19.50;74.10;;;;;;4149898;28;20050;-85
2022/09/06 02:53:25;;;;;;;4.35;2.70;;;19.50;74.20;;;;;;4147948;28;20050;-85
2022/09/06 02:55:27;;;;;;;3.40;3.00;;;19.50;74.30;;;;;;4149238;28;20056;-85
2022/09/06 02:57:28;;;;;;;3.53;2.78;;;19.40;74.30;;;;;;4132907;28;20100;-85
2022/09/06 02:59:29;;;;;;;3.70;2.83;;;19.40;74.40;;;;;;4149256;28;20495;-85
2022/09/06 03:01:30;;;;;;;8.23;3.13;;;19.40;74.40;;;;;;4132332;28;20592;-85
2022/09/06 03:03:31;;;;;;;4.35;3.20;;;19.40;74.70;;;;;;4149229;28;20082;-85
2022/09/06 03:05:32;;;;;;;3.90;2.88;;;19.40;74.70;;;;;;4132355;28;20058;-84
2022/09/06 03:07:32;;;;;;;3.65;3.28;;;19.30;74.70;;;;;;4149433;28;20089;-84
2022/09/06 03:09:33;;;;;;;4.60;2.95;;;19.40;74.80;;;;;;4148664;28;20117;-84
2022/09/06 03:11:34;;;;;;;9.00;3.38;;;19.40;74.80;;;;;;4148757;28;20467;-86
2022/09/06 03:13:35;;;;;;;3.42;2.70;;;19.30;74.90;;;;;;4132045;28;20046;-86
2022/09/06 03:15:36;;;;;;;6.30;3.35;;;19.30;75.00;;;;;;4139355;28;20042;-86
2022/09/06 03:17:37;;;;;;;6.10;2.97;;;19.30;75.10;;;;;;4132826;28;20104;-86
2022/09/06 03:19:39;;;;;;;4.15;2.83;;;19.30;75.20;;;;;;4131858;28;20079;-85
2022/09/06 03:21:40;;;;;;;6.20;3.35;;;19.20;75.50;;;;;;4130780;28;20504;-85
2022/09/06 03:23:41;;;;;;;3.33;2.70;;;19.20;75.60;;;;;;4132376;28;20053;-85
2022/09/06 03:25:43;;;;;;;5.40;3.58;;;19.20;75.80;;;;;;4132354;28;20064;-86
2022/09/06 03:27:44;;;;;;;5.88;3.40;;;19.20;75.90;;;;;;4132636;28;20477;-85
2022/09/06 03:29:45;;;;;;;5.55;3.40;;;19.20;75.90;;;;;;4131412;28;20053;-84
2022/09/06 03:31:45;;;;;;;6.93;3.80;;;19.10;76.50;;;;;;4115055;28;20054;-85
2022/09/06 03:33:47;;;;;;;8.07;3.25;;;19.10;76.70;;;;;;4136459;28;20496;-85
2022/09/06 03:35:54;;;;;;;6.60;3.22;;;19.10;76.10;;;;;;4145519;28;20052;-85
2022/09/06 03:37:54;;;;;;;4.00;3.05;;;19.10;76.30;;;;;;4131458;28;20093;-85
2022/09/06 03:39:55;;;;;;;5.32;3.17;;;19.10;76.20;;;;;;4148954;28;20054;-85
2022/09/06 03:41:56;;;;;;;5.57;3.55;;;19.10;76.40;;;;;;4148945;28;20046;-85
2022/09/06 03:43:57;;;;;;;4.35;3.30;;;19.10;76.50;;;;;;4148597;28;20495;-85
2022/09/06 03:45:57;;;;;;;4.78;3.33;;;19.10;76.60;;;;;;4131581;28;20078;-85
2022/09/06 03:47:59;;;;;;;6.65;3.80;;;19.10;76.60;;;;;;4148954;28;20077;-85
2022/09/06 03:50:00;;;;;;;5.50;4.18;;;19.00;76.80;;;;;;4149303;28;20052;-85
2022/09/06 03:52:01;;;;;;;8.50;3.63;;;19.10;76.90;;;;;;4148337;28;20046;-84
2022/09/06 03:54:02;;;;;;;6.20;3.55;;;19.00;76.90;;;;;;4149040;28;20050;-86
2022/09/06 03:56:02;;;;;;;4.45;3.17;;;19.00;77.10;;;;;;4148923;28;20041;-86
2022/09/06 03:58:03;;;;;;;5.07;3.65;;;19.00;77.10;;;;;;4131346;28;20108;-86
2022/09/06 04:00:05;;;;;;;4.88;3.72;;;19.00;77.30;;;;;;4131618;28;20421;-85
2022/09/06 04:02:06;;;;;;;7.15;4.18;;;19.00;77.40;;;;;;4148680;28;20053;-85
2022/09/06 04:04:07;;;;;;;5.45;3.53;;;19.00;77.60;;;;;;4148264;28;20053;-85
2022/09/06 04:06:09;;;;;;;5.43;3.53;;;18.90;77.70;;;;;;4149079;28;20127;-86
2022/09/06 04:08:10;;;;;;;6.50;3.45;;;18.90;77.90;;;;;;4148745;28;20092;-86
2022/09/06 04:10:10;;;;;;;5.28;3.30;;;18.90;77.90;;;;;;4148794;28;20038;-86
2022/09/06 04:12:11;;;;;;;7.05;4.40;;;18.90;78.10;;;;;;4130296;28;20053;-86
2022/09/06 04:14:12;;;;;;;5.38;3.70;;;18.80;78.20;;;;;;4148581;28;20081;-86
2022/09/06 04:16:13;;;;;;;5.13;4.00;;;18.80;78.20;;;;;;4148880;28;20508;-86
2022/09/06 04:18:14;;;;;;;5.70;4.30;;;18.80;78.40;;;;;;4148575;28;20041;-86
2022/09/06 04:20:15;;;;;;;5.95;3.70;;;18.80;78.50;;;;;;4148555;28;20046;-86
2022/09/06 04:22:16;;;;;;;4.72;3.45;;;18.80;78.70;;;;;;4132958;28;20365;-86
2022/09/06 04:24:16;;;;;;;8.10;4.30;;;18.70;78.90;;;;;;4151316;28;20096;-86
2022/09/06 04:26:17;;;;;;;6.88;3.78;;;18.70;78.90;;;;;;4151595;28;20049;-86
2022/09/06 04:28:18;;;;;;;4.07;3.67;;;18.70;79.00;;;;;;4134114;28;20129;-86
2022/09/06 04:30:19;;;;;;;6.30;4.60;;;18.70;79.10;;;;;;4151653;28;20523;-86
2022/09/06 04:32:20;;;;;;;8.82;4.38;;;18.70;79.20;;;;;;4151509;28;20045;-85
2022/09/06 04:34:20;;;;;;;5.55;4.28;;;18.70;79.20;;;;;;4134040;28;20054;-85
2022/09/06 04:36:21;;;;;;;11.68;3.97;;;18.70;79.40;;;;;;4151742;28;20081;-86
2022/09/06 04:38:23;;;;;;;8.68;4.20;;;18.70;79.70;;;;;;4134670;28;20077;-85
2022/09/06 04:40:24;;;;;;;5.90;4.72;;;18.70;79.70;;;;;;4151193;28;20099;-85
2022/09/06 04:42:25;;;;;;;4.47;3.85;;;18.70;79.90;;;;;;4151802;28;20129;-85
2022/09/06 04:44:25;;;;;;;4.35;3.88;;;18.70;80.10;;;;;;4151192;28;20042;-84
2022/09/06 04:46:28;;;;;;;4.97;4.38;;;18.70;80.20;;;;;;4133460;28;20493;-84
2022/09/06 04:48:29;;;;;;;7.47;4.38;;;18.60;80.30;;;;;;4150157;28;20404;-85
2022/09/06 04:50:30;;;;;;;6.03;4.30;;;18.60;80.50;;;;;;4149995;28;20113;-85
2022/09/06 04:52:31;;;;;;;7.13;4.43;;;18.60;80.60;;;;;;4132753;28;20505;-85
2022/09/06 04:54:32;;;;;;;9.90;4.22;;;18.60;80.60;;;;;;4150094;28;20046;-85
2022/09/06 04:56:32;;;;;;;9.10;5.25;;;18.60;80.70;;;;;;4150355;28;20814;-85
2022/09/06 04:58:34;;;;;;;7.63;4.70;;;18.40;80.60;;;;;;4133138;28;20097;-85
2022/09/06 05:00:37;;;;;;;10.13;4.60;;;18.60;80.90;;;;;;4129974;28;20591;-85
2022/09/06 05:02:38;;;;;;;6.93;4.40;;;18.60;81.10;;;;;;4134379;28;20034;-84
2022/09/06 05:04:38;;;;;;;8.90;4.47;;;18.60;81.30;;;;;;4133950;28;20115;-85
2022/09/06 05:06:40;;;;;;;11.50;4.32;;;18.60;81.40;;;;;;4133654;28;20126;-85
2022/09/06 05:08:41;;;;;;;6.13;4.65;;;18.50;81.60;;;;;;4132517;28;20405;-85
2022/09/06 05:10:41;;;;;;;5.85;4.30;;;18.60;81.70;;;;;;4133838;28;20049;-84
2022/09/06 05:12:42;;;;;;;10.70;5.30;;;18.50;81.80;;;;;;4133330;28;20054;-84
2022/09/06 05:14:44;;;;;;;14.38;5.63;;;18.60;82.00;;;;;;4132312;28;20587;-84
2022/09/06 05:16:45;;;;;;;5.97;5.22;;;18.60;82.90;;;;;;4133131;28;20047;-85
2022/09/06 05:18:46;;;;;;;7.95;5.13;;;18.60;83.90;;;;;;4132940;28;20034;-85
2022/09/06 05:20:53;;;;;;;8.27;5.43;;;18.60;84.80;;;;;;4115821;28;20682;-84
2022/09/06 05:22:53;;;;;;;6.70;5.32;;;18.60;85.80;;;;;;4133456;28;20047;-84
2022/09/06 05:24:54;;;;;;;7.07;4.78;;;18.60;85.90;;;;;;4133472;28;20050;-84
2022/09/06 05:26:55;;;;;;;8.38;5.25;;;18.60;86.60;;;;;;4133240;28;20042;-84
2022/09/06 05:28:55;;;;;;;10.55;5.35;;;18.60;87.20;;;;;;4133824;28;20042;-85
2022/09/06 05:31:11;;;;;;;6.93;5.03;;;18.50;87.70;;;;;;4146400;28;20046;-85
2022/09/06 05:33:17;;;;;;;8.68;5.28;;;18.50;88.70;;;;;;4149819;28;20049;-85
2022/09/06 05:35:18;;;;;;;7.43;4.95;;;18.50;88.40;;;;;;4133409;28;20061;-84
2022/09/06 05:37:20;;;;;;;12.38;5.68;;;18.60;89.00;;;;;;4133325;28;20416;-85
2022/09/06 05:39:21;;;;;;;7.03;5.50;;;18.50;89.30;;;;;;4132822;28;20054;-84
2022/09/06 05:41:25;;;;;;;8.57;5.30;;;18.50;89.70;;;;;;4132235;28;20405;-84
2022/09/06 05:43:25;;;;;;;9.75;5.65;;;18.60;90.00;;;;;;4157054;28;20547;-85
2022/09/06 05:45:26;;;;;;;8.15;5.65;;;18.50;90.10;;;;;;4161178;28;20042;-85
2022/09/06 05:47:27;;;;;;;11.13;5.70;;;18.60;90.10;;;;;;4121088;28;20092;-83
2022/09/06 05:49:29;;;;;;;7.45;5.43;;;18.50;90.20;;;;;;4123118;28;20517;-84
2022/09/06 05:51:31;;;;;;;7.85;5.78;;;18.50;90.30;;;;;;4156299;28;20045;-84
2022/09/06 05:53:37;;;;;;;7.45;5.60;;;18.50;90.30;;;;;;4156931;28;20450;-84
2022/09/06 05:55:38;;;;;;;7.90;5.68;;;18.50;90.30;;;;;;4156230;28;20096;-85
2022/09/06 05:57:38;;;;;;;12.73;5.70;;;18.50;90.20;;;;;;4155167;28;20546;-85
2022/09/06 05:59:39;;;;;;;6.25;5.15;;;18.50;90.30;;;;;;4139297;28;20125;-85
2022/09/06 06:01:51;;;;;;;5.85;5.15;;;18.50;90.20;;;;;;4158676;28;20045;-85
2022/09/06 06:03:54;;;;;;;10.80;5.35;;;18.60;90.40;;;;;;4150028;28;20038;-85
2022/09/06 06:05:54;;;;;;;6.70;5.45;;;18.60;90.20;;;;;;4148847;28;20063;-85
2022/09/06 06:07:56;;;;;;;6.95;5.28;;;18.60;90.20;;;;;;4150648;28;20164;-85
2022/09/06 06:09:57;;;;;;;9.18;5.55;;;18.60;90.10;;;;;;4127911;28;20058;-85
2022/09/06 06:11:58;;;;;;;8.75;5.40;;;18.60;90.00;;;;;;4149219;28;20041;-85
2022/09/06 06:13:59;;;;;;;7.53;5.47;;;18.60;89.90;;;;;;4145064;28;20074;-84
2022/09/06 06:16:02;;;;;;;13.95;6.22;;;18.60;89.90;;;;;;4132442;28;20093;-85
2022/09/06 06:18:02;;;;;;;6.65;5.18;;;18.70;90.10;;;;;;4114396;28;20453;-85
2022/09/06 06:20:03;;;;;;;7.80;5.20;;;18.70;90.10;;;;;;4131561;28;20042;-85
2022/09/06 06:22:04;;;;;;;11.65;6.10;;;18.70;90.00;;;;;;4114770;28;20046;-85
2022/09/06 06:24:06;;;;;;;10.05;6.07;;;18.80;90.10;;;;;;4133977;28;20118;-85
2022/09/06 06:26:08;;;;;;;9.80;6.15;;;18.80;90.10;;;;;;4114670;28;20497;-84
2022/09/06 06:28:16;;;;;;;7.55;5.30;;;18.60;90.00;;;;;;4114589;28;20050;-84
2022/09/06 06:30:17;;;;;;;11.13;5.35;;;18.80;90.20;;;;;;4114062;28;20046;-84
2022/09/06 06:32:18;;;;;;;8.45;5.85;;;18.90;90.10;;;;;;4144866;28;20052;-85
2022/09/06 06:34:20;;;;;;;10.18;5.80;;;18.90;90.20;;;;;;4116087;28;20089;-86
2022/09/06 06:36:23;;;;;;;8.63;6.50;;;18.90;90.20;;;;;;4125100;28;20424;-85
2022/09/06 06:38:28;;;;;;;12.20;6.38;;;18.90;90.20;;;;;;4115759;28;20055;-85
2022/09/06 06:40:29;;;;;;;9.13;5.55;;;18.90;90.10;;;;;;4149395;28;20053;-86
2022/09/06 06:42:30;;;;;;;14.02;6.18;;;19.00;90.10;;;;;;4132744;28;20078;-86
2022/09/06 06:44:31;;;;;;;13.77;7.03;;;18.90;90.20;;;;;;4130626;28;20516;-87
2022/09/06 06:46:34;;;;;;;13.20;6.55;;;19.00;90.20;;;;;;4131770;28;20511;-86
2022/09/06 06:48:36;;;;;;;10.60;6.40;;;19.00;90.30;;;;;;4138626;28;20034;-85
2022/09/06 06:50:36;;;;;;;8.45;5.68;;;18.80;90.20;;;;;;4132937;28;20050;-85
2022/09/06 06:52:38;;;;;;;10.50;6.68;;;18.90;90.20;;;;;;4115581;28;20158;-86
2022/09/06 06:54:40;;;;;;;9.40;6.20;;;19.00;90.50;;;;;;4133686;28;20042;-85
2022/09/06 06:56:41;;;;;;;10.13;5.75;;;19.00;90.40;;;;;;4132739;28;20051;-85
2022/09/06 06:58:43;;;;;;;7.57;5.68;;;18.90;90.30;;;;;;4115653;28;20091;-86
2022/09/06 07:00:44;;;;;;;7.53;5.75;;;19.00;90.40;;;;;;4115798;28;20074;-85
2022/09/06 07:02:45;;;;;;;11.13;6.90;;;19.00;90.40;;;;;;4099811;29;20055;-85
2022/09/06 07:04:46;;;;;;;8.00;6.47;;;19.00;90.40;;;;;;4133419;28;20100;-85
2022/09/06 07:06:55;;;;;;;13.80;6.75;;;19.00;90.30;;;;;;4115454;28;20062;-85
2022/09/06 07:08:57;;;;;;;7.50;6.30;;;19.00;90.40;;;;;;4132812;28;20467;-85
2022/09/06 07:10:58;;;;;;;8.95;6.43;;;19.00;90.30;;;;;;4133129;28;20293;-85
2022/09/06 07:12:59;;;;;;;8.95;5.95;;;19.10;90.40;;;;;;4099394;29;20133;-85
2022/09/06 07:14:59;;;;;;;12.20;6.45;;;19.10;90.40;;;;;;4115033;28;20066;-85
2022/09/06 07:17:00;;;;;;;8.32;6.13;;;19.20;90.40;;;;;;4115848;28;20082;-86
2022/09/06 07:19:01;;;;;;;8.80;6.05;;;19.20;90.40;;;;;;4134348;28;20397;-86
2022/09/06 07:21:02;;;;;;;13.57;6.60;;;19.30;90.40;;;;;;4132966;28;20411;-87
2022/09/06 07:23:04;;;;;;;12.75;7.78;;;19.30;90.30;;;;;;4132027;28;20042;-86
2022/09/06 07:25:06;;;;;;;7.78;6.68;;;19.20;90.30;;;;;;4141464;28;20062;-84
2022/09/06 07:27:07;;;;;;;13.80;7.97;;;19.30;90.30;;;;;;4136685;28;20412;-84
2022/09/06 07:29:08;;;;;;;12.63;7.35;;;19.40;90.30;;;;;;4118784;28;20046;-84
2022/09/06 07:31:09;;;;;;;9.07;6.55;;;19.50;90.10;;;;;;4143133;28;20052;-82
2022/09/06 07:33:10;;;;;;;14.35;7.72;;;19.50;90.20;;;;;;4127120;28;20432;-82
2022/09/06 07:35:12;;;;;;;8.20;7.13;;;19.50;90.20;;;;;;4143862;28;20038;-82
2022/09/06 07:37:13;;;;;;;15.68;6.75;;;19.50;90.10;;;;;;4132963;28;20125;-82
2022/09/06 07:39:14;;;;;;;11.27;6.88;;;19.50;90.10;;;;;;4154705;28;20049;-83
2022/09/06 07:41:17;;;;;;;12.50;7.72;;;19.60;90.20;;;;;;4137544;28;20404;-83
2022/09/06 07:43:17;;;;;;;13.02;8.05;;;19.60;90.20;;;;;;4152452;28;20403;-83
2022/09/06 07:45:18;;;;;;;8.60;6.80;;;19.60;90.20;;;;;;4140678;28;20081;-83
2022/09/06 07:47:19;;;;;;;16.90;7.18;;;19.60;90.20;;;;;;4140706;28;20042;-84
2022/09/06 07:49:21;;;;;;;10.25;6.85;;;19.70;90.20;;;;;;4153894;28;20484;-83
2022/09/06 07:51:22;;;;;;;11.02;7.20;;;19.70;90.20;;;;;;4137001;28;20052;-82
2022/09/06 07:53:23;;;;;;;9.55;7.25;;;19.90;90.10;;;;;;4153536;28;20437;-83
2022/09/06 07:55:24;;;;;;;15.40;7.25;;;20.20;89.80;;;;;;4154430;28;20040;-82
2022/09/06 07:57:25;;;;;;;10.98;6.88;;;20.40;89.30;;;;;;4160386;28;20045;-83
2022/09/06 07:59:26;;;;;;;10.18;7.30;;;20.50;88.90;;;;;;4160951;28;20536;-84
2022/09/06 08:01:30;;;;;;;9.40;7.22;;;20.50;88.60;;;;;;4140160;28;20065;-84
2022/09/06 08:03:31;;;;;;;12.38;6.97;;;20.50;88.60;;;;;;4138592;28;20502;-83
2022/09/06 08:05:32;;;;;;;9.85;7.55;;;20.70;88.50;;;;;;4160462;28;20128;-84
2022/09/06 08:07:33;;;;;;;12.25;7.55;;;20.90;88.30;;;;;;4161319;28;20091;-84
2022/09/06 08:09:34;;;;;;;8.98;6.97;;;21.30;87.60;;;;;;4160557;28;20128;-83
2022/09/06 08:11:36;;;;;;;9.23;6.25;;;21.50;86.90;;;;;;4140643;28;20503;-82
2022/09/06 08:13:37;;;;;;;10.77;6.97;;;21.70;86.20;;;;;;4160081;28;20796;-83
2022/09/06 08:15:38;;;;;;;9.82;7.05;;;22.00;85.60;;;;;;4161425;28;20510;-83
2022/09/06 08:17:39;;;;;;;9.07;7.07;;;22.20;84.80;;;;;;4161778;28;20037;-82
2022/09/06 08:19:42;;;;;;;9.13;6.38;;;22.50;84.30;;;;;;4155659;28;20091;-82
2022/09/06 08:21:43;;;;;;;9.60;6.38;;;22.70;83.90;;;;;;4136122;28;20054;-82
2022/09/06 08:23:47;;;;;;;11.40;6.75;;;23.00;83.20;;;;;;4135077;28;20062;-82
2022/09/06 08:25:58;;;;;;;9.70;6.40;;;23.50;82.50;;;;;;4136709;28;20088;-82
2022/09/06 08:27:59;;;;;;;11.52;6.80;;;23.40;80.90;;;;;;4152459;28;20069;-82
2022/09/06 08:29:59;;;;;;;9.13;6.70;;;23.60;80.70;;;;;;4152278;28;20054;-82
2022/09/06 08:32:00;;;;;;;8.35;6.30;;;23.80;80.30;;;;;;4135814;28;20117;-83
2022/09/06 08:34:01;;;;;;;8.60;6.30;;;23.80;80.20;;;;;;4152847;28;20050;-84
2022/09/06 08:36:03;;;;;;;17.30;6.45;;;23.90;79.30;;;;;;4152970;28;20500;-83
2022/09/06 08:38:05;;;;;;;17.15;6.85;;;24.10;78.90;;;;;;4133893;28;20050;-83
2022/09/06 08:40:06;;;;;;;13.98;6.15;;;24.30;78.60;;;;;;4152356;28;20086;-83
2022/09/06 08:42:08;;;;;;;11.40;6.28;;;24.60;78.10;;;;;;4153905;28;20045;-82
2022/09/06 08:44:17;;;;;;;11.27;6.68;;;24.70;77.10;;;;;;4152749;28;20045;-84
2022/09/06 08:46:20;;;;;;;9.35;6.32;;;24.80;76.40;;;;;;4152174;28;20476;-83
2022/09/06 08:48:26;;;;;;;13.38;7.00;;;24.70;76.10;;;;;;4137374;28;20042;-83
2022/09/06 08:50:28;;;;;;;8.60;6.05;;;24.60;76.10;;;;;;4134786;28;20428;-82
2022/09/06 08:52:47;;;;;;;8.88;6.05;;;24.60;76.10;;;;;;4136043;28;20042;-82
2022/09/06 08:54:58;;;;;;;9.80;6.60;;;24.80;76.00;;;;;;4135682;28;20050;-84
2022/09/06 08:57:08;;;;;;;9.48;5.68;;;25.10;75.80;;;;;;4102236;29;20115;-82
2022/09/06 08:59:16;;;;;;;8.13;5.95;;;25.70;75.20;;;;;;4135689;28;20123;-83
2022/09/06 09:01:24;;;;;;;8.40;5.97;;;25.70;74.20;;;;;;4135722;28;20046;-82
2022/09/06 09:03:35;;;;;;;7.93;5.68;;;26.10;73.70;;;;;;4136361;28;20050;-83
2022/09/06 09:05:39;;;;;;;8.93;5.82;;;26.50;72.80;;;;;;4136831;28;20042;-83
2022/09/06 09:07:48;;;;;;;6.38;5.28;;;27.10;72.00;;;;;;4134163;28;20448;-83
2022/09/06 09:09:53;;;;;;;13.00;5.38;;;27.60;70.90;;;;;;4134375;28;20096;-82
2022/09/06 09:11:54;;;;;;;7.03;5.78;;;28.10;70.00;;;;;;4136265;28;20046;-82
2022/09/06 09:14:34;;;;;;;8.40;5.47;;;28.50;68.70;;;;;;4135919;28;20564;-83
2022/09/06 09:16:35;;;;;;;8.95;5.60;;;29.20;68.00;;;;;;4129881;28;20062;-83
2022/09/06 09:18:39;;;;;;;8.77;6.07;;;29.60;65.70;;;;;;4136324;28;20551;-83
2022/09/06 09:20:41;;;;;;;10.45;5.90;;;30.00;64.80;;;;;;4136052;28;20038;-83
2022/09/06 09:22:44;;;;;;;9.77;6.85;;;30.10;64.00;;;;;;4136058;28;20054;-83
2022/09/06 09:24:47;;;;;;;8.05;6.10;;;30.10;63.00;;;;;;4117789;28;20138;-85
2022/09/06 09:26:56;;;;;;;11.25;6.43;;;29.40;63.40;;;;;;4133641;28;20045;-83
2022/09/06 09:29:12;;;;;;;8.52;6.03;;;29.10;63.20;;;;;;4136633;28;20540;-83
2022/09/06 09:31:32;;;;;;;8.23;6.63;;;29.00;63.50;;;;;;4136744;28;20481;-83
2022/09/06 09:33:38;;;;;;;8.27;6.22;;;28.70;63.40;;;;;;4135365;28;20050;-83
2022/09/06 09:35:41;;;;;;;9.40;5.65;;;28.70;64.30;;;;;;4136176;28;20134;-82
2022/09/06 09:37:43;;;;;;;8.68;6.30;;;28.70;64.80;;;;;;4135762;28;20050;-84
2022/09/06 09:39:45;;;;;;;8.40;5.90;;;28.70;64.80;;;;;;4117828;28;20053;-83
2022/09/06 09:41:49;;;;;;;12.20;6.80;;;29.00;64.80;;;;;;4120173;28;20122;-82
2022/09/06 09:44:04;;;;;;;8.18;6.28;;;29.50;63.50;;;;;;4121271;28;20113;-83
2022/09/06 09:46:34;;;;;;;10.98;6.05;;;29.00;63.00;;;;;;4120228;28;20046;-83
2022/09/06 09:48:36;;;;;;;15.48;6.45;;;29.10;63.60;;;;;;4120593;28;20468;-83
2022/09/06 09:50:38;;;;;;;9.63;6.40;;;29.20;63.70;;;;;;4126958;28;20050;-83
2022/09/06 09:52:43;;;;;;;10.98;5.88;;;29.30;63.00;;;;;;4131008;28;20037;-83
2022/09/06 09:54:52;;;;;;;9.23;5.90;;;29.20;63.60;;;;;;4122374;28;20592;-83
2022/09/06 09:56:56;;;;;;;7.45;6.00;;;29.10;63.40;;;;;;4148806;28;20056;-83
2022/09/06 09:58:58;;;;;;;10.48;6.35;;;28.60;63.00;;;;;;4151150;28;20045;-84
2022/09/06 10:01:19;;;;;;;9.52;5.57;;;28.20;63.80;;;;;;4151583;28;20046;-85
2022/09/06 10:03:28;;;;;;;6.60;5.40;;;27.90;63.80;;;;;;4149792;28;20484;-84
2022/09/06 10:05:28;;;;;;;10.15;5.88;;;27.80;64.50;;;;;;4148100;28;20049;-85
2022/09/06 10:07:32;;;;;;;8.23;5.43;;;28.10;64.70;;;;;;4149098;28;20132;-84
2022/09/06 10:09:38;;;;;;;10.63;5.68;;;28.60;64.80;;;;;;4147712;28;20081;-84
2022/09/06 10:12:00;;;;;;;9.60;5.43;;;29.00;63.70;;;;;;4149278;28;20072;-85
2022/09/06 10:14:26;;;;;;;8.80;5.57;;;29.40;62.40;;;;;;4151020;28;20042;-85
2022/09/06 10:16:44;;;;;;;10.57;5.43;;;29.70;62.10;;;;;;4150430;28;20045;-84
2022/09/06 10:18:51;;;;;;;7.18;5.20;;;29.90;61.70;;;;;;4149794;28;20046;-85
2022/09/06 10:21:00;;;;;;;6.63;4.40;;;30.00;61.40;;;;;;4151097;28;20065;-85
2022/09/06 10:23:03;;;;;;;8.43;4.78;;;30.30;62.00;;;;;;4151572;28;20046;-84
2022/09/06 10:25:42;;;;;;;8.75;5.57;;;30.60;61.50;;;;;;4150593;28;20053;-84
2022/09/06 10:28:03;;;;;;;7.65;5.20;;;30.50;58.70;;;;;;4149343;28;20041;-85
2022/09/06 10:30:07;;;;;;;7.07;5.95;;;30.20;58.90;;;;;;4149433;28;20058;-84
2022/09/06 10:32:27;;;;;;;9.25;5.38;;;30.10;60.10;;;;;;4149111;28;20056;-84
2022/09/06 10:35:04;;;;;;;5.78;5.00;;;30.30;58.90;;;;;;4149039;28;20446;-84
2022/09/06 10:37:11;;;;;;;6.97;4.85;;;30.60;59.70;;;;;;4149046;28;20048;-84
2022/09/06 10:39:20;;;;;;;7.50;4.88;;;30.70;59.00;;;;;;4148971;28;20407;-84
2022/09/06 10:41:46;;;;;;;8.45;5.20;;;30.70;58.70;;;;;;4147105;28;20053;-85
2022/09/06 10:44:08;;;;;;;6.53;5.10;;;30.80;58.10;;;;;;4148910;28;20054;-84
2022/09/06 10:46:15;;;;;;;6.60;5.10;;;31.20;57.20;;;;;;4148925;28;20049;-84
2022/09/06 10:48:29;;;;;;;7.80;5.22;;;31.40;57.10;;;;;;4154759;28;20456;-84